sensor_id;sensor_type;location;lat;lon;timestamp;pressure;altitude;pressure_sealevel;temperature;humidity
27613;BME280;15036;48.094;-1.690;2023-06-26T00:01:29;101464.78;;;23.52;49.74
27613;BME280;15036;48.094;-1.690;2023-06-26T00:03:56;101463.38;;;23.91;48.90
27613;BME280;15036;48.094;-1.690;2023-06-26T00:06:22;101471.16;;;23.89;49.03
27613;BME280;15036;48.094;-1.690;2023-06-26T00:08:51;101480.81;;;23.35;50.06
27613;BME280;15036;48.094;-1.690;2023-06-26T00:11:16;101472.59;;;23.55;49.61
27613;BME280;15036;48.094;-1.690;2023-06-26T00:13:42;101470.72;;;23.66;49.93
27613;BME280;15036;48.094;-1.690;2023-06-26T00:16:07;101475.41;;;23.28;50.70
27613;BME280;15036;48.094;-1.690;2023-06-26T00:18:33;101482.97;;;23.01;51.14
27613;BME280;15036;48.094;-1.690;2023-06-26T00:20:58;101474.00;;;23.94;48.86
27613;BME280;15036;48.094;-1.690;2023-06-26T00:23:23;101479.56;;;23.26;50.27
27613;BME280;15036;48.094;-1.690;2023-06-26T00:25:48;101482.09;;;23.59;50.07
27613;BME280;15036;48.094;-1.690;2023-06-26T00:28:14;101478.03;;;23.35;50.41
27613;BME280;15036;48.094;-1.690;2023-06-26T00:30:39;101489.25;;;23.45;49.96
27613;BME280;15036;48.094;-1.690;2023-06-26T00:33:05;101488.13;;;23.83;49.06
27613;BME280;15036;48.094;-1.690;2023-06-26T00:35:30;101484.59;;;22.97;51.10
27613;BME280;15036;48.094;-1.690;2023-06-26T00:37:55;101489.31;;;22.70;51.60
27613;BME280;15036;48.094;-1.690;2023-06-26T00:40:21;101485.75;;;22.53;52.07
27613;BME280;15036;48.094;-1.690;2023-06-26T00:42:46;101491.75;;;22.88;51.45
27613;BME280;15036;48.094;-1.690;2023-06-26T00:45:11;101491.72;;;23.42;50.09
27613;BME280;15036;48.094;-1.690;2023-06-26T00:47:37;101506.41;;;22.35;52.55
27613;BME280;15036;48.094;-1.690;2023-06-26T00:50:03;101502.25;;;23.08;51.03
27613;BME280;15036;48.094;-1.690;2023-06-26T00:52:29;101495.59;;;22.61;51.66
27613;BME280;15036;48.094;-1.690;2023-06-26T00:54:55;101510.66;;;23.13;50.82
27613;BME280;15036;48.094;-1.690;2023-06-26T00:57:20;101515.38;;;22.42;52.37
27613;BME280;15036;48.094;-1.690;2023-06-26T00:59:45;101505.22;;;22.75;51.89
27613;BME280;15036;48.094;-1.690;2023-06-26T01:02:11;101508.41;;;22.40;52.99
27613;BME280;15036;48.094;-1.690;2023-06-26T01:04:36;101503.09;;;22.82;51.74
27613;BME280;15036;48.094;-1.690;2023-06-26T01:07:03;101510.53;;;23.56;49.42
27613;BME280;15036;48.094;-1.690;2023-06-26T01:09:30;101502.69;;;23.53;49.90
27613;BME280;15036;48.094;-1.690;2023-06-26T01:11:56;101507.06;;;23.39;49.89
27613;BME280;15036;48.094;-1.690;2023-06-26T01:14:21;101505.56;;;23.05;51.11
27613;BME280;15036;48.094;-1.690;2023-06-26T01:16:47;101516.50;;;23.11;50.97
27613;BME280;15036;48.094;-1.690;2023-06-26T01:19:19;101515.94;;;22.61;52.61
27613;BME280;15036;48.094;-1.690;2023-06-26T01:21:51;101509.13;;;22.52;52.68
27613;BME280;15036;48.094;-1.690;2023-06-26T01:24:19;101513.41;;;23.35;50.63
27613;BME280;15036;48.094;-1.690;2023-06-26T01:26:46;101520.31;;;22.79;52.01
27613;BME280;15036;48.094;-1.690;2023-06-26T01:29:15;101519.28;;;23.38;50.44
27613;BME280;15036;48.094;-1.690;2023-06-26T01:31:41;101520.63;;;22.39;52.97
27613;BME280;15036;48.094;-1.690;2023-06-26T01:34:07;101522.00;;;22.80;52.12
27613;BME280;15036;48.094;-1.690;2023-06-26T01:36:32;101519.16;;;22.75;52.28
27613;BME280;15036;48.094;-1.690;2023-06-26T01:38:57;101522.78;;;23.28;50.92
27613;BME280;15036;48.094;-1.690;2023-06-26T01:41:23;101515.78;;;23.26;50.88
27613;BME280;15036;48.094;-1.690;2023-06-26T01:47:02;101519.50;;;23.05;51.38
27613;BME280;15036;48.094;-1.690;2023-06-26T01:49:47;101512.50;;;23.29;50.67
27613;BME280;15036;48.094;-1.690;2023-06-26T01:52:25;101520.34;;;22.40;52.98
27613;BME280;15036;48.094;-1.690;2023-06-26T01:57:43;101522.00;;;22.58;52.33
27613;BME280;15036;48.094;-1.690;2023-06-26T02:00:11;101518.69;;;22.39;52.70
27613;BME280;15036;48.094;-1.690;2023-06-26T02:02:38;101524.97;;;22.52;52.67
27613;BME280;15036;48.094;-1.690;2023-06-26T02:05:05;101526.84;;;22.89;51.61
27613;BME280;15036;48.094;-1.690;2023-06-26T02:07:31;101523.84;;;22.53;52.28
27613;BME280;15036;48.094;-1.690;2023-06-26T02:09:56;101526.41;;;21.94;53.96
27613;BME280;15036;48.094;-1.690;2023-06-26T02:12:22;101523.72;;;22.59;52.64
27613;BME280;15036;48.094;-1.690;2023-06-26T02:14:47;101528.78;;;22.24;53.31
27613;BME280;15036;48.094;-1.690;2023-06-26T02:17:12;101535.56;;;21.95;54.37
27613;BME280;15036;48.094;-1.690;2023-06-26T02:19:38;101534.09;;;21.26;56.00
27613;BME280;15036;48.094;-1.690;2023-06-26T02:22:13;101528.38;;;22.15;53.66
27613;BME280;15036;48.094;-1.690;2023-06-26T02:24:39;101534.66;;;21.89;54.46
27613;BME280;15036;48.094;-1.690;2023-06-26T02:27:04;101530.28;;;22.31;53.01
27613;BME280;15036;48.094;-1.690;2023-06-26T02:29:29;101535.81;;;21.93;54.47
27613;BME280;15036;48.094;-1.690;2023-06-26T02:31:55;101536.69;;;21.94;54.57
27613;BME280;15036;48.094;-1.690;2023-06-26T02:34:20;101539.06;;;22.23;53.52
27613;BME280;15036;48.094;-1.690;2023-06-26T02:36:45;101550.91;;;21.97;53.93
27613;BME280;15036;48.094;-1.690;2023-06-26T02:39:11;101548.44;;;21.34;55.88
27613;BME280;15036;48.094;-1.690;2023-06-26T02:41:36;101554.31;;;20.93;56.93
27613;BME280;15036;48.094;-1.690;2023-06-26T02:44:01;101556.41;;;21.14;56.53
27613;BME280;15036;48.094;-1.690;2023-06-26T02:46:27;101550.00;;;20.86;57.53
27613;BME280;15036;48.094;-1.690;2023-06-26T02:48:52;101557.06;;;21.05;56.61
27613;BME280;15036;48.094;-1.690;2023-06-26T02:51:17;101552.78;;;20.86;57.18
27613;BME280;15036;48.094;-1.690;2023-06-26T02:53:43;101557.72;;;21.56;55.57
27613;BME280;15036;48.094;-1.690;2023-06-26T02:56:08;101551.25;;;21.51;55.01
27613;BME280;15036;48.094;-1.690;2023-06-26T02:58:33;101555.84;;;20.61;57.74
27613;BME280;15036;48.094;-1.690;2023-06-26T03:00:59;101550.38;;;21.67;54.54
27613;BME280;15036;48.094;-1.690;2023-06-26T03:03:24;101553.00;;;20.84;57.04
27613;BME280;15036;48.094;-1.690;2023-06-26T03:05:50;101559.91;;;21.10;56.28
27613;BME280;15036;48.094;-1.690;2023-06-26T03:08:15;101559.97;;;21.26;55.82
27613;BME280;15036;48.094;-1.690;2023-06-26T03:10:41;101570.72;;;21.23;55.78
27613;BME280;15036;48.094;-1.690;2023-06-26T03:13:06;101570.88;;;21.16;55.92
27613;BME280;15036;48.094;-1.690;2023-06-26T03:15:32;101570.41;;;20.68;57.50
27613;BME280;15036;48.094;-1.690;2023-06-26T03:17:57;101559.53;;;20.78;56.99
27613;BME280;15036;48.094;-1.690;2023-06-26T03:20:22;101560.63;;;21.17;56.29
27613;BME280;15036;48.094;-1.690;2023-06-26T03:22:48;101569.03;;;20.54;57.84
27613;BME280;15036;48.094;-1.690;2023-06-26T03:25:13;101563.22;;;20.95;56.28
27613;BME280;15036;48.094;-1.690;2023-06-26T03:27:38;101567.06;;;20.94;56.51
27613;BME280;15036;48.094;-1.690;2023-06-26T03:30:04;101565.56;;;21.43;55.20
27613;BME280;15036;48.094;-1.690;2023-06-26T03:32:29;101565.28;;;21.61;54.27
27613;BME280;15036;48.094;-1.690;2023-06-26T03:34:55;101573.16;;;21.19;55.29
27613;BME280;15036;48.094;-1.690;2023-06-26T03:37:21;101572.09;;;21.37;55.21
27613;BME280;15036;48.094;-1.690;2023-06-26T03:39:47;101563.41;;;21.17;55.10
27613;BME280;15036;48.094;-1.690;2023-06-26T03:42:12;101572.91;;;21.21;55.40
27613;BME280;15036;48.094;-1.690;2023-06-26T03:44:37;101571.56;;;20.32;57.85
27613;BME280;15036;48.094;-1.690;2023-06-26T03:47:03;101575.88;;;20.63;57.10
27613;BME280;15036;48.094;-1.690;2023-06-26T03:49:28;101575.19;;;20.56;57.18
27613;BME280;15036;48.094;-1.690;2023-06-26T03:51:54;101572.94;;;20.81;56.25
27613;BME280;15036;48.094;-1.690;2023-06-26T03:54:19;101576.78;;;21.20;55.24
27613;BME280;15036;48.094;-1.690;2023-06-26T03:56:44;101580.69;;;21.52;54.21
27613;BME280;15036;48.094;-1.690;2023-06-26T03:59:10;101585.09;;;21.65;54.12
27613;BME280;15036;48.094;-1.690;2023-06-26T04:01:37;101582.19;;;21.26;54.93
27613;BME280;15036;48.094;-1.690;2023-06-26T04:04:02;101581.31;;;21.71;53.46
27613;BME280;15036;48.094;-1.690;2023-06-26T04:06:28;101577.25;;;21.45;54.49
27613;BME280;15036;48.094;-1.690;2023-06-26T04:08:53;101573.47;;;22.01;52.79
27613;BME280;15036;48.094;-1.690;2023-06-26T04:11:18;101573.78;;;21.71;53.33
27613;BME280;15036;48.094;-1.690;2023-06-26T04:13:44;101575.56;;;21.44;54.14
27613;BME280;15036;48.094;-1.690;2023-06-26T04:16:09;101581.53;;;21.69;53.77
27613;BME280;15036;48.094;-1.690;2023-06-26T04:18:36;101572.97;;;21.09;54.96
27613;BME280;15036;48.094;-1.690;2023-06-26T04:21:07;101579.22;;;21.94;52.72
27613;BME280;15036;48.094;-1.690;2023-06-26T04:23:33;101589.84;;;21.36;54.20
27613;BME280;15036;48.094;-1.690;2023-06-26T04:25:58;101584.91;;;20.58;56.31
27613;BME280;15036;48.094;-1.690;2023-06-26T04:28:24;101578.31;;;20.59;56.75
27613;BME280;15036;48.094;-1.690;2023-06-26T04:30:50;101587.88;;;21.20;55.11
27613;BME280;15036;48.094;-1.690;2023-06-26T04:33:15;101583.94;;;20.64;56.64
27613;BME280;15036;48.094;-1.690;2023-06-26T04:35:41;101584.47;;;21.01;55.43
27613;BME280;15036;48.094;-1.690;2023-06-26T04:38:06;101582.75;;;21.56;54.05
27613;BME280;15036;48.094;-1.690;2023-06-26T04:40:31;101586.56;;;21.84;53.45
27613;BME280;15036;48.094;-1.690;2023-06-26T04:42:56;101591.25;;;21.67;53.44
27613;BME280;15036;48.094;-1.690;2023-06-26T04:45:22;101595.28;;;21.14;54.71
27613;BME280;15036;48.094;-1.690;2023-06-26T04:47:47;101597.22;;;21.75;53.40
27613;BME280;15036;48.094;-1.690;2023-06-26T04:50:13;101584.25;;;20.91;54.97
27613;BME280;15036;48.094;-1.690;2023-06-26T04:52:38;101596.28;;;20.57;56.98
27613;BME280;15036;48.094;-1.690;2023-06-26T04:55:04;101603.16;;;21.06;55.32
27613;BME280;15036;48.094;-1.690;2023-06-26T04:57:29;101604.75;;;20.27;57.39
27613;BME280;15036;48.094;-1.690;2023-06-26T04:59:54;101601.50;;;20.93;55.72
27613;BME280;15036;48.094;-1.690;2023-06-26T05:02:20;101605.47;;;20.34;57.95
27613;BME280;15036;48.094;-1.690;2023-06-26T05:04:45;101604.63;;;20.97;55.43
27613;BME280;15036;48.094;-1.690;2023-06-26T05:07:12;101602.66;;;21.09;55.51
27613;BME280;15036;48.094;-1.690;2023-06-26T05:09:37;101604.09;;;21.00;55.42
27613;BME280;15036;48.094;-1.690;2023-06-26T05:12:03;101607.97;;;21.10;55.07
27613;BME280;15036;48.094;-1.690;2023-06-26T05:14:28;101604.97;;;21.00;54.99
27613;BME280;15036;48.094;-1.690;2023-06-26T05:16:53;101619.31;;;20.00;58.29
27613;BME280;15036;48.094;-1.690;2023-06-26T05:19:19;101615.13;;;20.95;55.99
27613;BME280;15036;48.094;-1.690;2023-06-26T05:21:45;101617.38;;;20.98;55.89
27613;BME280;15036;48.094;-1.690;2023-06-26T05:24:13;101626.69;;;20.63;56.81
27613;BME280;15036;48.094;-1.690;2023-06-26T05:26:39;101628.00;;;21.12;55.52
27613;BME280;15036;48.094;-1.690;2023-06-26T05:29:04;101625.75;;;21.09;55.78
27613;BME280;15036;48.094;-1.690;2023-06-26T05:31:35;101622.75;;;20.88;55.83
27613;BME280;15036;48.094;-1.690;2023-06-26T05:34:03;101636.34;;;21.85;53.47
27613;BME280;15036;48.094;-1.690;2023-06-26T05:36:29;101631.41;;;21.59;54.04
27613;BME280;15036;48.094;-1.690;2023-06-26T05:38:58;101642.19;;;20.88;55.78
27613;BME280;15036;48.094;-1.690;2023-06-26T05:41:24;101640.97;;;20.95;55.83
27613;BME280;15036;48.094;-1.690;2023-06-26T05:43:49;101637.00;;;20.91;55.85
27613;BME280;15036;48.094;-1.690;2023-06-26T05:46:15;101645.25;;;21.14;55.02
27613;BME280;15036;48.094;-1.690;2023-06-26T05:48:40;101647.31;;;21.92;53.52
27613;BME280;15036;48.094;-1.690;2023-06-26T05:51:06;101650.78;;;21.54;54.53
27613;BME280;15036;48.094;-1.690;2023-06-26T05:53:32;101656.91;;;21.84;53.61
27613;BME280;15036;48.094;-1.690;2023-06-26T05:55:57;101660.97;;;21.65;54.33
27613;BME280;15036;48.094;-1.690;2023-06-26T05:58:25;101652.94;;;21.24;55.27
27613;BME280;15036;48.094;-1.690;2023-06-26T06:00:51;101654.97;;;20.89;56.33
27613;BME280;15036;48.094;-1.690;2023-06-26T06:03:16;101659.38;;;21.52;54.45
27613;BME280;15036;48.094;-1.690;2023-06-26T06:05:42;101659.22;;;22.20;53.02
27613;BME280;15036;48.094;-1.690;2023-06-26T06:08:07;101665.75;;;21.81;53.82
27613;BME280;15036;48.094;-1.690;2023-06-26T06:10:32;101665.53;;;21.71;54.33
27613;BME280;15036;48.094;-1.690;2023-06-26T06:12:58;101666.34;;;21.83;52.83
27613;BME280;15036;48.094;-1.690;2023-06-26T06:15:23;101666.06;;;21.40;54.26
27613;BME280;15036;48.094;-1.690;2023-06-26T06:17:48;101663.13;;;21.75;53.30
27613;BME280;15036;48.094;-1.690;2023-06-26T06:20:14;101660.84;;;21.43;54.33
27613;BME280;15036;48.094;-1.690;2023-06-26T06:22:39;101662.00;;;22.20;52.51
27613;BME280;15036;48.094;-1.690;2023-06-26T06:25:05;101667.69;;;22.47;51.59
27613;BME280;15036;48.094;-1.690;2023-06-26T06:27:30;101666.41;;;21.43;54.05
27613;BME280;15036;48.094;-1.690;2023-06-26T06:29:56;101670.91;;;20.93;55.99
27613;BME280;15036;48.094;-1.690;2023-06-26T06:32:22;101675.09;;;21.19;54.99
27613;BME280;15036;48.094;-1.690;2023-06-26T06:34:47;101664.84;;;22.09;52.71
27613;BME280;15036;48.094;-1.690;2023-06-26T06:37:12;101671.16;;;21.88;53.67
27613;BME280;15036;48.094;-1.690;2023-06-26T06:39:38;101673.44;;;20.95;55.87
27613;BME280;15036;48.094;-1.690;2023-06-26T06:42:03;101667.63;;;22.09;53.15
27613;BME280;15036;48.094;-1.690;2023-06-26T06:44:29;101668.31;;;22.54;51.50
27613;BME280;15036;48.094;-1.690;2023-06-26T06:46:58;101669.56;;;22.41;51.42
27613;BME280;15036;48.094;-1.690;2023-06-26T06:49:23;101673.59;;;22.17;52.29
27613;BME280;15036;48.094;-1.690;2023-06-26T06:51:49;101680.63;;;21.75;53.43
27613;BME280;15036;48.094;-1.690;2023-06-26T06:54:15;101684.91;;;22.61;51.10
27613;BME280;15036;48.094;-1.690;2023-06-26T06:56:41;101674.88;;;23.41;49.46
27613;BME280;15036;48.094;-1.690;2023-06-26T06:59:07;101680.53;;;23.08;49.35
27613;BME280;15036;48.094;-1.690;2023-06-26T07:01:32;101695.09;;;22.72;50.63
27613;BME280;15036;48.094;-1.690;2023-06-26T07:03:57;101686.31;;;23.23;49.38
27613;BME280;15036;48.094;-1.690;2023-06-26T07:06:23;101689.63;;;22.27;51.60
27613;BME280;15036;48.094;-1.690;2023-06-26T07:08:48;101696.91;;;22.83;49.98
27613;BME280;15036;48.094;-1.690;2023-06-26T07:11:13;101702.16;;;22.79;49.13
27613;BME280;15036;48.094;-1.690;2023-06-26T07:13:39;101698.38;;;23.07;48.99
27613;BME280;15036;48.094;-1.690;2023-06-26T07:16:04;101718.22;;;22.94;48.85
27613;BME280;15036;48.094;-1.690;2023-06-26T07:18:30;101713.50;;;22.39;50.09
27613;BME280;15036;48.094;-1.690;2023-06-26T07:20:55;101723.09;;;22.82;49.57
27613;BME280;15036;48.094;-1.690;2023-06-26T07:23:21;101722.84;;;22.67;50.17
27613;BME280;15036;48.094;-1.690;2023-06-26T07:25:46;101715.97;;;22.91;49.17
27613;BME280;15036;48.094;-1.690;2023-06-26T07:28:12;101708.69;;;23.76;46.98
27613;BME280;15036;48.094;-1.690;2023-06-26T07:30:38;101714.97;;;23.88;46.80
27613;BME280;15036;48.094;-1.690;2023-06-26T07:33:03;101718.72;;;23.51;46.25
27613;BME280;15036;48.094;-1.690;2023-06-26T07:35:28;101714.00;;;23.78;46.00
27613;BME280;15036;48.094;-1.690;2023-06-26T07:37:54;101707.56;;;23.77;46.31
27613;BME280;15036;48.094;-1.690;2023-06-26T07:40:19;101723.41;;;23.45;47.09
27613;BME280;15036;48.094;-1.690;2023-06-26T07:42:45;101729.31;;;23.49;47.01
27613;BME280;15036;48.094;-1.690;2023-06-26T07:45:11;101727.53;;;23.64;45.98
27613;BME280;15036;48.094;-1.690;2023-06-26T07:47:38;101727.72;;;24.38;44.63
27613;BME280;15036;48.094;-1.690;2023-06-26T07:50:04;101726.03;;;24.05;45.18
27613;BME280;15036;48.094;-1.690;2023-06-26T07:52:29;101728.06;;;24.15;44.11
27613;BME280;15036;48.094;-1.690;2023-06-26T07:54:58;101729.28;;;24.24;43.48
27613;BME280;15036;48.094;-1.690;2023-06-26T07:57:23;101732.25;;;23.64;44.56
27613;BME280;15036;48.094;-1.690;2023-06-26T07:59:50;101733.75;;;24.61;42.66
27613;BME280;15036;48.094;-1.690;2023-06-26T08:02:15;101728.00;;;24.36;42.94
27613;BME280;15036;48.094;-1.690;2023-06-26T08:04:41;101730.34;;;23.04;45.41
27613;BME280;15036;48.094;-1.690;2023-06-26T08:07:06;101730.78;;;23.83;42.96
27613;BME280;15036;48.094;-1.690;2023-06-26T08:09:32;101727.16;;;24.09;42.83
27613;BME280;15036;48.094;-1.690;2023-06-26T08:11:58;101731.47;;;24.22;42.10
27613;BME280;15036;48.094;-1.690;2023-06-26T08:14:24;101730.06;;;24.87;41.25
27613;BME280;15036;48.094;-1.690;2023-06-26T08:16:50;101731.03;;;24.03;42.62
27613;BME280;15036;48.094;-1.690;2023-06-26T08:19:16;101736.81;;;23.96;42.55
27613;BME280;15036;48.094;-1.690;2023-06-26T08:21:43;101736.47;;;24.88;40.91
27613;BME280;15036;48.094;-1.690;2023-06-26T08:24:09;101734.63;;;25.04;40.98
27613;BME280;15036;48.094;-1.690;2023-06-26T08:26:35;101742.81;;;24.42;41.50
27613;BME280;15036;48.094;-1.690;2023-06-26T08:29:01;101749.78;;;24.39;42.10
27613;BME280;15036;48.094;-1.690;2023-06-26T08:31:33;101744.97;;;25.03;40.92
27613;BME280;15036;48.094;-1.690;2023-06-26T08:33:59;101739.31;;;24.93;40.38
27613;BME280;15036;48.094;-1.690;2023-06-26T08:36:25;101742.06;;;24.88;40.28
27613;BME280;15036;48.094;-1.690;2023-06-26T08:38:50;101737.78;;;25.17;39.34
27613;BME280;15036;48.094;-1.690;2023-06-26T08:41:17;101743.16;;;25.29;39.40
27613;BME280;15036;48.094;-1.690;2023-06-26T08:43:42;101742.81;;;25.15;39.97
27613;BME280;15036;48.094;-1.690;2023-06-26T08:46:07;101745.81;;;25.60;39.28
27613;BME280;15036;48.094;-1.690;2023-06-26T08:48:34;101744.75;;;25.82;38.41
27613;BME280;15036;48.094;-1.690;2023-06-26T08:51:05;101742.78;;;25.87;37.78
27613;BME280;15036;48.094;-1.690;2023-06-26T08:55:59;101742.63;;;24.85;39.12
27613;BME280;15036;48.094;-1.690;2023-06-26T08:58:26;101747.53;;;25.82;37.21
27613;BME280;15036;48.094;-1.690;2023-06-26T09:00:52;101760.94;;;25.08;38.55
27613;BME280;15036;48.094;-1.690;2023-06-26T09:03:17;101759.69;;;24.88;38.74
27613;BME280;15036;48.094;-1.690;2023-06-26T09:05:43;101752.03;;;25.88;37.59
27613;BME280;15036;48.094;-1.690;2023-06-26T09:08:08;101757.75;;;26.28;36.43
27613;BME280;15036;48.094;-1.690;2023-06-26T09:10:34;101756.63;;;26.24;36.04
27613;BME280;15036;48.094;-1.690;2023-06-26T09:13:00;101763.16;;;25.62;37.27
27613;BME280;15036;48.094;-1.690;2023-06-26T09:15:42;101759.28;;;25.68;37.56
27613;BME280;15036;48.094;-1.690;2023-06-26T09:18:07;101759.63;;;25.92;36.55
27613;BME280;15036;48.094;-1.690;2023-06-26T09:20:33;101754.66;;;26.19;35.88
27613;BME280;15036;48.094;-1.690;2023-06-26T09:22:59;101751.03;;;26.54;34.58
27613;BME280;15036;48.094;-1.690;2023-06-26T09:25:25;101754.66;;;26.44;34.72
27613;BME280;15036;48.094;-1.690;2023-06-26T09:27:51;101748.66;;;25.75;35.49
27613;BME280;15036;48.094;-1.690;2023-06-26T09:30:17;101751.59;;;26.66;34.51
27613;BME280;15036;48.094;-1.690;2023-06-26T09:32:43;101747.84;;;27.21;33.47
27613;BME280;15036;48.094;-1.690;2023-06-26T09:35:09;101744.50;;;27.83;32.55
27613;BME280;15036;48.094;-1.690;2023-06-26T09:37:35;101749.22;;;28.31;32.45
27613;BME280;15036;48.094;-1.690;2023-06-26T09:40:00;101759.91;;;27.21;33.22
27613;BME280;15036;48.094;-1.690;2023-06-26T09:42:26;101751.75;;;25.89;34.45
27613;BME280;15036;48.094;-1.690;2023-06-26T09:44:51;101758.03;;;26.31;32.96
27613;BME280;15036;48.094;-1.690;2023-06-26T09:47:18;101754.66;;;26.59;32.75
27613;BME280;15036;48.094;-1.690;2023-06-26T09:49:44;101766.16;;;26.83;31.83
27613;BME280;15036;48.094;-1.690;2023-06-26T09:52:14;101766.41;;;26.56;32.58
27613;BME280;15036;48.094;-1.690;2023-06-26T09:54:41;101769.50;;;26.35;34.07
27613;BME280;15036;48.094;-1.690;2023-06-26T09:57:09;101768.16;;;27.62;31.77
27613;BME280;15036;48.094;-1.690;2023-06-26T09:59:36;101774.16;;;27.40;31.93
27613;BME280;15036;48.094;-1.690;2023-06-26T10:02:01;101763.09;;;27.64;33.00
27613;BME280;15036;48.094;-1.690;2023-06-26T10:04:27;101761.59;;;27.17;32.54
27613;BME280;15036;48.094;-1.690;2023-06-26T10:06:55;101770.91;;;26.83;32.47
27613;BME280;15036;48.094;-1.690;2023-06-26T10:09:22;101764.47;;;26.32;33.91
27613;BME280;15036;48.094;-1.690;2023-06-26T10:11:54;101754.38;;;27.70;32.11
27613;BME280;15036;48.094;-1.690;2023-06-26T10:14:21;101747.97;;;28.81;30.29
27613;BME280;15036;48.094;-1.690;2023-06-26T10:16:49;101758.09;;;27.56;31.29
27613;BME280;15036;48.094;-1.690;2023-06-26T10:19:17;101740.81;;;28.31;30.33
27613;BME280;15036;48.094;-1.690;2023-06-26T10:21:46;101748.31;;;27.53;31.05
27613;BME280;15036;48.094;-1.690;2023-06-26T10:24:12;101749.97;;;28.08;30.36
27613;BME280;15036;48.094;-1.690;2023-06-26T10:26:42;101754.75;;;28.41;29.80
27613;BME280;15036;48.094;-1.690;2023-06-26T10:29:09;101768.50;;;27.55;32.09
27613;BME280;15036;48.094;-1.690;2023-06-26T10:31:36;101768.22;;;27.52;31.78
27613;BME280;15036;48.094;-1.690;2023-06-26T10:34:03;101772.00;;;26.97;33.51
27613;BME280;15036;48.094;-1.690;2023-06-26T10:36:30;101764.19;;;26.63;33.29
27613;BME280;15036;48.094;-1.690;2023-06-26T10:38:58;101755.75;;;26.69;32.87
27613;BME280;15036;48.094;-1.690;2023-06-26T10:41:24;101763.75;;;27.51;31.86
27613;BME280;15036;48.094;-1.690;2023-06-26T10:46:24;101761.66;;;26.82;30.85
27613;BME280;15036;48.094;-1.690;2023-06-26T10:49:00;101745.63;;;28.25;28.86
27613;BME280;15036;48.094;-1.690;2023-06-26T10:51:28;101747.88;;;27.80;29.37
27613;BME280;15036;48.094;-1.690;2023-06-26T10:53:55;101739.88;;;28.41;28.53
27613;BME280;15036;48.094;-1.690;2023-06-26T10:56:21;101743.34;;;27.35;30.53
27613;BME280;15036;48.094;-1.690;2023-06-26T10:58:47;101743.25;;;28.04;29.49
27613;BME280;15036;48.094;-1.690;2023-06-26T11:01:18;101763.00;;;27.89;29.89
27613;BME280;15036;48.094;-1.690;2023-06-26T11:06:20;101755.19;;;27.81;30.77
27613;BME280;15036;48.094;-1.690;2023-06-26T11:14:25;101746.03;;;28.09;31.02
27613;BME280;15036;48.094;-1.690;2023-06-26T11:16:51;101746.81;;;27.66;31.64
27613;BME280;15036;48.094;-1.690;2023-06-26T11:19:19;101760.69;;;28.01;31.10
27613;BME280;15036;48.094;-1.690;2023-06-26T11:21:45;101762.56;;;28.15;30.60
27613;BME280;15036;48.094;-1.690;2023-06-26T11:24:12;101754.81;;;27.97;30.93
27613;BME280;15036;48.094;-1.690;2023-06-26T11:26:39;101746.78;;;28.53;30.12
27613;BME280;15036;48.094;-1.690;2023-06-26T11:29:05;101751.28;;;28.59;29.94
27613;BME280;15036;48.094;-1.690;2023-06-26T11:31:32;101751.56;;;28.19;31.06
27613;BME280;15036;48.094;-1.690;2023-06-26T11:34:02;101743.09;;;29.62;29.83
27613;BME280;15036;48.094;-1.690;2023-06-26T11:36:28;101745.28;;;29.89;29.35
27613;BME280;15036;48.094;-1.690;2023-06-26T11:38:58;101750.44;;;28.20;29.86
27613;BME280;15036;48.094;-1.690;2023-06-26T11:41:27;101755.28;;;28.48;29.90
27613;BME280;15036;48.094;-1.690;2023-06-26T11:43:54;101749.63;;;28.58;30.06
27613;BME280;15036;48.094;-1.690;2023-06-26T11:46:22;101750.81;;;29.04;29.23
27613;BME280;15036;48.094;-1.690;2023-06-26T11:48:48;101748.34;;;28.98;29.08
27613;BME280;15036;48.094;-1.690;2023-06-26T11:51:14;101742.44;;;30.26;27.71
27613;BME280;15036;48.094;-1.690;2023-06-26T11:53:41;101743.44;;;29.56;28.05
27613;BME280;15036;48.094;-1.690;2023-06-26T11:56:11;101763.06;;;29.42;28.93
27613;BME280;15036;48.094;-1.690;2023-06-26T12:01:21;101751.56;;;28.58;29.91
27613;BME280;15036;48.094;-1.690;2023-06-26T12:03:48;101746.19;;;28.27;30.20
27613;BME280;15036;48.094;-1.690;2023-06-26T12:06:14;101743.56;;;27.43;31.05
27613;BME280;15036;48.094;-1.690;2023-06-26T12:08:40;101743.25;;;29.00;29.41
27613;BME280;15036;48.094;-1.690;2023-06-26T12:11:06;101744.78;;;28.64;29.39
27613;BME280;15036;48.094;-1.690;2023-06-26T12:13:32;101743.81;;;28.40;29.64
27613;BME280;15036;48.094;-1.690;2023-06-26T12:15:57;101746.41;;;27.92;30.40
27613;BME280;15036;48.094;-1.690;2023-06-26T12:18:22;101744.59;;;28.84;28.65
27613;BME280;15036;48.094;-1.690;2023-06-26T12:20:51;101751.84;;;28.90;29.02
27613;BME280;15036;48.094;-1.690;2023-06-26T12:23:16;101741.81;;;29.02;28.79
27613;BME280;15036;48.094;-1.690;2023-06-26T12:25:43;101738.44;;;29.05;28.30
27613;BME280;15036;48.094;-1.690;2023-06-26T12:28:16;101730.69;;;29.87;27.26
27613;BME280;15036;48.094;-1.690;2023-06-26T12:30:45;101728.69;;;31.30;25.49
27613;BME280;15036;48.094;-1.690;2023-06-26T12:33:14;101723.41;;;31.91;24.18
27613;BME280;15036;48.094;-1.690;2023-06-26T12:35:41;101723.88;;;32.65;23.38
27613;BME280;15036;48.094;-1.690;2023-06-26T12:38:08;101723.34;;;32.18;22.59
27613;BME280;15036;48.094;-1.690;2023-06-26T12:40:44;101725.88;;;31.16;24.02
27613;BME280;15036;48.094;-1.690;2023-06-26T12:43:23;101707.47;;;32.45;22.69
27613;BME280;15036;48.094;-1.690;2023-06-26T12:45:48;101726.53;;;31.54;23.98
27613;BME280;15036;48.094;-1.690;2023-06-26T12:48:18;101732.06;;;31.32;24.20
27613;BME280;15036;48.094;-1.690;2023-06-26T12:50:45;101712.47;;;31.76;23.79
27613;BME280;15036;48.094;-1.690;2023-06-26T12:53:11;101716.50;;;32.55;23.01
27613;BME280;15036;48.094;-1.690;2023-06-26T12:55:36;101724.56;;;32.26;23.01
27613;BME280;15036;48.094;-1.690;2023-06-26T12:58:02;101712.16;;;33.10;22.01